sensor_id;sensor_type;location;lat;lon;timestamp;P1;durP1;ratioP1;P2;durP2;ratioP2
57441;SDS011;43284;47.042;15.498;2022-08-01T00:02:20;4.35;;;3.15;;
57441;SDS011;43284;47.042;15.498;2022-08-01T00:04:48;9.05;;;3.55;;
57441;SDS011;43284;47.042;15.498;2022-08-01T00:07:15;4.82;;;3.17;;
57441;SDS011;43284;47.042;15.498;2022-08-01T00:09:42;6.25;;;3.30;;
57441;SDS011;43284;47.042;15.498;2022-08-01T00:12:09;4.38;;;3.28;;
57441;SDS011;43284;47.042;15.498;2022-08-01T00:14:36;4.07;;;3.20;;
57441;SDS011;43284;47.042;15.498;2022-08-01T00:17:03;3.88;;;2.85;;
57441;SDS011;43284;47.042;15.498;2022-08-01T00:19:31;5.72;;;3.85;;
57441;SDS011;43284;47.042;15.498;2022-08-01T00:21:58;4.28;;;3.33;;
57441;SDS011;43284;47.042;15.498;2022-08-01T00:24:25;3.88;;;3.03;;
57441;SDS011;43284;47.042;15.498;2022-08-01T00:26:52;8.68;;;4.90;;
57441;SDS011;43284;47.042;15.498;2022-08-01T00:29:19;3.92;;;3.25;;
57441;SDS011;43284;47.042;15.498;2022-08-01T00:31:47;8.55;;;3.65;;
57441;SDS011;43284;47.042;15.498;2022-08-01T00:34:15;3.95;;;3.28;;
57441;SDS011;43284;47.042;15.498;2022-08-01T00:36:42;5.22;;;2.85;;
57441;SDS011;43284;47.042;15.498;2022-08-01T00:39:09;8.13;;;3.25;;
57441;SDS011;43284;47.042;15.498;2022-08-01T00:41:36;4.10;;;3.55;;
57441;SDS011;43284;47.042;15.498;2022-08-01T00:44:04;7.93;;;3.55;;
57441;SDS011;43284;47.042;15.498;2022-08-01T00:46:32;6.43;;;3.30;;
57441;SDS011;43284;47.042;15.498;2022-08-01T00:48:59;5.85;;;3.22;;
57441;SDS011;43284;47.042;15.498;2022-08-01T00:51:27;4.15;;;3.42;;
57441;SDS011;43284;47.042;15.498;2022-08-01T00:53:55;5.40;;;3.10;;
57441;SDS011;43284;47.042;15.498;2022-08-01T00:56:23;3.85;;;2.95;;
57441;SDS011;43284;47.042;15.498;2022-08-01T00:58:52;4.90;;;3.25;;
57441;SDS011;43284;47.042;15.498;2022-08-01T01:01:21;6.20;;;3.75;;
57441;SDS011;43284;47.042;15.498;2022-08-01T01:03:50;4.63;;;3.45;;
57441;SDS011;43284;47.042;15.498;2022-08-01T01:12:10;3.85;;;3.30;;
57441;SDS011;43284;47.042;15.498;2022-08-01T01:14:56;4.45;;;3.33;;
57441;SDS011;43284;47.042;15.498;2022-08-01T01:20:21;4.35;;;3.40;;
57441;SDS011;43284;47.042;15.498;2022-08-01T01:22:50;5.18;;;3.72;;
57441;SDS011;43284;47.042;15.498;2022-08-01T01:31:27;4.07;;;3.45;;
57441;SDS011;43284;47.042;15.498;2022-08-01T01:33:57;5.90;;;3.58;;
57441;SDS011;43284;47.042;15.498;2022-08-01T01:36:27;7.45;;;3.75;;
57441;SDS011;43284;47.042;15.498;2022-08-01T01:38:57;6.30;;;4.60;;
57441;SDS011;43284;47.042;15.498;2022-08-01T01:41:25;5.65;;;3.75;;
57441;SDS011;43284;47.042;15.498;2022-08-01T01:43:53;4.78;;;3.63;;
57441;SDS011;43284;47.042;15.498;2022-08-01T01:46:22;4.07;;;3.20;;
57441;SDS011;43284;47.042;15.498;2022-08-01T01:48:53;6.75;;;3.60;;
57441;SDS011;43284;47.042;15.498;2022-08-01T01:51:23;7.32;;;3.58;;
57441;SDS011;43284;47.042;15.498;2022-08-01T01:53:53;4.35;;;3.63;;
57441;SDS011;43284;47.042;15.498;2022-08-01T01:56:22;4.93;;;3.67;;
57441;SDS011;43284;47.042;15.498;2022-08-01T01:58:52;4.18;;;3.42;;
57441;SDS011;43284;47.042;15.498;2022-08-01T02:01:23;4.57;;;3.50;;
57441;SDS011;43284;47.042;15.498;2022-08-01T02:03:54;5.40;;;3.47;;
57441;SDS011;43284;47.042;15.498;2022-08-01T02:06:24;4.95;;;3.60;;
57441;SDS011;43284;47.042;15.498;2022-08-01T02:08:53;7.13;;;3.50;;
57441;SDS011;43284;47.042;15.498;2022-08-01T02:11:21;6.72;;;3.75;;
57441;SDS011;43284;47.042;15.498;2022-08-01T02:13:59;4.35;;;3.80;;
57441;SDS011;43284;47.042;15.498;2022-08-01T02:16:28;5.70;;;3.60;;
57441;SDS011;43284;47.042;15.498;2022-08-01T02:19:01;5.50;;;3.60;;
57441;SDS011;43284;47.042;15.498;2022-08-01T02:21:40;4.82;;;3.25;;
57441;SDS011;43284;47.042;15.498;2022-08-01T02:24:32;5.70;;;3.28;;
57441;SDS011;43284;47.042;15.498;2022-08-01T02:27:10;5.82;;;3.45;;
57441;SDS011;43284;47.042;15.498;2022-08-01T02:29:50;5.50;;;3.72;;
57441;SDS011;43284;47.042;15.498;2022-08-01T02:32:46;6.20;;;3.47;;
57441;SDS011;43284;47.042;15.498;2022-08-01T02:35:25;5.78;;;3.50;;
57441;SDS011;43284;47.042;15.498;2022-08-01T02:37:55;4.13;;;3.60;;
57441;SDS011;43284;47.042;15.498;2022-08-01T02:40:26;4.75;;;3.90;;
57441;SDS011;43284;47.042;15.498;2022-08-01T02:42:55;5.72;;;3.50;;
57441;SDS011;43284;47.042;15.498;2022-08-01T02:45:25;4.90;;;3.97;;
57441;SDS011;43284;47.042;15.498;2022-08-01T02:47:59;5.40;;;3.60;;
57441;SDS011;43284;47.042;15.498;2022-08-01T02:50:33;5.03;;;4.00;;
57441;SDS011;43284;47.042;15.498;2022-08-01T02:53:02;4.38;;;3.40;;
57441;SDS011;43284;47.042;15.498;2022-08-01T02:55:32;4.72;;;3.42;;
57441;SDS011;43284;47.042;15.498;2022-08-01T02:58:01;7.25;;;4.13;;
57441;SDS011;43284;47.042;15.498;2022-08-01T03:00:29;5.00;;;3.63;;
57441;SDS011;43284;47.042;15.498;2022-08-01T03:02:58;7.10;;;4.32;;
57441;SDS011;43284;47.042;15.498;2022-08-01T03:05:27;5.30;;;4.10;;
57441;SDS011;43284;47.042;15.498;2022-08-01T03:07:57;5.53;;;3.92;;
57441;SDS011;43284;47.042;15.498;2022-08-01T03:10:28;5.93;;;4.20;;
57441;SDS011;43284;47.042;15.498;2022-08-01T03:12:57;4.22;;;3.35;;
57441;SDS011;43284;47.042;15.498;2022-08-01T03:15:26;5.70;;;4.03;;
57441;SDS011;43284;47.042;15.498;2022-08-01T03:17:57;4.57;;;3.67;;
57441;SDS011;43284;47.042;15.498;2022-08-01T03:20:27;7.30;;;3.33;;
57441;SDS011;43284;47.042;15.498;2022-08-01T03:22:56;4.50;;;3.65;;
57441;SDS011;43284;47.042;15.498;2022-08-01T03:25:26;3.70;;;3.40;;
57441;SDS011;43284;47.042;15.498;2022-08-01T03:27:56;4.53;;;3.92;;
57441;SDS011;43284;47.042;15.498;2022-08-01T03:30:27;4.38;;;3.40;;
57441;SDS011;43284;47.042;15.498;2022-08-01T03:32:57;5.25;;;3.53;;
57441;SDS011;43284;47.042;15.498;2022-08-01T03:35:30;5.82;;;3.92;;
57441;SDS011;43284;47.042;15.498;2022-08-01T03:38:00;5.82;;;3.50;;
57441;SDS011;43284;47.042;15.498;2022-08-01T03:40:41;5.85;;;3.22;;
57441;SDS011;43284;47.042;15.498;2022-08-01T03:45:46;4.57;;;3.45;;
57441;SDS011;43284;47.042;15.498;2022-08-01T03:48:18;5.20;;;3.78;;
57441;SDS011;43284;47.042;15.498;2022-08-01T03:50:54;5.20;;;3.80;;
57441;SDS011;43284;47.042;15.498;2022-08-01T03:53:24;8.15;;;3.80;;
57441;SDS011;43284;47.042;15.498;2022-08-01T03:55:58;5.60;;;4.20;;
57441;SDS011;43284;47.042;15.498;2022-08-01T03:58:29;5.75;;;3.42;;
57441;SDS011;43284;47.042;15.498;2022-08-01T04:00:57;6.85;;;3.88;;
57441;SDS011;43284;47.042;15.498;2022-08-01T04:03:25;4.40;;;3.67;;
57441;SDS011;43284;47.042;15.498;2022-08-01T04:05:53;7.50;;;4.00;;
57441;SDS011;43284;47.042;15.498;2022-08-01T04:08:21;4.70;;;4.00;;
57441;SDS011;43284;47.042;15.498;2022-08-01T04:10:48;4.55;;;3.70;;
57441;SDS011;43284;47.042;15.498;2022-08-01T04:13:15;4.97;;;3.50;;
57441;SDS011;43284;47.042;15.498;2022-08-01T04:15:43;6.25;;;4.05;;
57441;SDS011;43284;47.042;15.498;2022-08-01T04:18:10;4.05;;;3.30;;
57441;SDS011;43284;47.042;15.498;2022-08-01T04:20:37;6.93;;;3.70;;
57441;SDS011;43284;47.042;15.498;2022-08-01T04:23:04;4.63;;;3.70;;
57441;SDS011;43284;47.042;15.498;2022-08-01T04:25:33;4.50;;;3.97;;
57441;SDS011;43284;47.042;15.498;2022-08-01T04:28:05;4.95;;;3.78;;
57441;SDS011;43284;47.042;15.498;2022-08-01T04:30:37;4.43;;;3.42;;
57441;SDS011;43284;47.042;15.498;2022-08-01T04:33:06;4.25;;;3.80;;
57441;SDS011;43284;47.042;15.498;2022-08-01T04:35:36;7.05;;;4.22;;
57441;SDS011;43284;47.042;15.498;2022-08-01T04:38:07;4.97;;;3.38;;
57441;SDS011;43284;47.042;15.498;2022-08-01T04:40:36;4.53;;;3.55;;
57441;SDS011;43284;47.042;15.498;2022-08-01T04:43:04;4.28;;;3.38;;
57441;SDS011;43284;47.042;15.498;2022-08-01T04:45:31;4.50;;;3.40;;
57441;SDS011;43284;47.042;15.498;2022-08-01T04:48:00;5.03;;;4.05;;
57441;SDS011;43284;47.042;15.498;2022-08-01T04:50:28;4.28;;;3.88;;
57441;SDS011;43284;47.042;15.498;2022-08-01T04:52:56;7.97;;;3.38;;
57441;SDS011;43284;47.042;15.498;2022-08-01T04:55:23;5.22;;;3.63;;
57441;SDS011;43284;47.042;15.498;2022-08-01T04:57:50;5.13;;;4.05;;
57441;SDS011;43284;47.042;15.498;2022-08-01T05:00:18;5.65;;;3.72;;
57441;SDS011;43284;47.042;15.498;2022-08-01T05:02:45;7.53;;;4.07;;
57441;SDS011;43284;47.042;15.498;2022-08-01T05:05:13;4.30;;;3.85;;
57441;SDS011;43284;47.042;15.498;2022-08-01T05:07:40;4.30;;;3.83;;
57441;SDS011;43284;47.042;15.498;2022-08-01T05:10:08;6.55;;;4.30;;
57441;SDS011;43284;47.042;15.498;2022-08-01T05:12:36;5.93;;;4.47;;
57441;SDS011;43284;47.042;15.498;2022-08-01T05:15:04;4.88;;;4.03;;
57441;SDS011;43284;47.042;15.498;2022-08-01T05:17:32;9.10;;;4.13;;
57441;SDS011;43284;47.042;15.498;2022-08-01T05:19:59;7.25;;;3.65;;
57441;SDS011;43284;47.042;15.498;2022-08-01T05:22:27;6.50;;;4.15;;
57441;SDS011;43284;47.042;15.498;2022-08-01T05:24:56;5.45;;;4.20;;
57441;SDS011;43284;47.042;15.498;2022-08-01T05:27:26;5.05;;;4.13;;
57441;SDS011;43284;47.042;15.498;2022-08-01T05:29:54;6.97;;;4.18;;
57441;SDS011;43284;47.042;15.498;2022-08-01T05:32:23;5.55;;;4.18;;
57441;SDS011;43284;47.042;15.498;2022-08-01T05:34:51;6.05;;;4.68;;
57441;SDS011;43284;47.042;15.498;2022-08-01T05:37:18;5.45;;;4.47;;
57441;SDS011;43284;47.042;15.498;2022-08-01T05:39:45;8.20;;;4.35;;
57441;SDS011;43284;47.042;15.498;2022-08-01T05:42:13;7.50;;;4.20;;
57441;SDS011;43284;47.042;15.498;2022-08-01T05:44:41;4.88;;;4.10;;
57441;SDS011;43284;47.042;15.498;2022-08-01T05:47:09;6.57;;;4.20;;
57441;SDS011;43284;47.042;15.498;2022-08-01T05:49:37;7.95;;;4.28;;
57441;SDS011;43284;47.042;15.498;2022-08-01T05:52:05;6.28;;;4.40;;
57441;SDS011;43284;47.042;15.498;2022-08-01T05:54:33;11.77;;;4.32;;
57441;SDS011;43284;47.042;15.498;2022-08-01T05:57:01;5.93;;;4.50;;
57441;SDS011;43284;47.042;15.498;2022-08-01T05:59:31;6.78;;;4.75;;
57441;SDS011;43284;47.042;15.498;2022-08-01T06:01:59;8.63;;;3.78;;
57441;SDS011;43284;47.042;15.498;2022-08-01T06:04:27;6.82;;;3.83;;
57441;SDS011;43284;47.042;15.498;2022-08-01T06:06:54;4.97;;;4.07;;
57441;SDS011;43284;47.042;15.498;2022-08-01T06:09:22;5.40;;;3.58;;
57441;SDS011;43284;47.042;15.498;2022-08-01T06:11:53;4.05;;;3.58;;
57441;SDS011;43284;47.042;15.498;2022-08-01T06:14:20;4.35;;;3.70;;
57441;SDS011;43284;47.042;15.498;2022-08-01T06:16:47;6.28;;;3.90;;
57441;SDS011;43284;47.042;15.498;2022-08-01T06:19:15;6.07;;;3.58;;
57441;SDS011;43284;47.042;15.498;2022-08-01T06:21:43;6.18;;;3.85;;
57441;SDS011;43284;47.042;15.498;2022-08-01T06:24:12;4.30;;;3.90;;
57441;SDS011;43284;47.042;15.498;2022-08-01T06:26:42;5.85;;;3.80;;
57441;SDS011;43284;47.042;15.498;2022-08-01T06:29:09;5.53;;;3.83;;
57441;SDS011;43284;47.042;15.498;2022-08-01T06:31:36;4.05;;;3.53;;
57441;SDS011;43284;47.042;15.498;2022-08-01T06:34:03;7.63;;;4.18;;
57441;SDS011;43284;47.042;15.498;2022-08-01T06:36:31;4.65;;;3.97;;
57441;SDS011;43284;47.042;15.498;2022-08-01T06:38:58;7.72;;;4.43;;
57441;SDS011;43284;47.042;15.498;2022-08-01T06:41:25;4.70;;;3.75;;
57441;SDS011;43284;47.042;15.498;2022-08-01T06:43:53;5.93;;;4.00;;
57441;SDS011;43284;47.042;15.498;2022-08-01T06:46:21;8.10;;;4.25;;
57441;SDS011;43284;47.042;15.498;2022-08-01T06:48:47;4.82;;;3.65;;
57441;SDS011;43284;47.042;15.498;2022-08-01T06:51:15;4.40;;;3.72;;
57441;SDS011;43284;47.042;15.498;2022-08-01T06:53:46;5.05;;;3.50;;
57441;SDS011;43284;47.042;15.498;2022-08-01T06:56:13;8.25;;;3.70;;
57441;SDS011;43284;47.042;15.498;2022-08-01T06:58:40;3.92;;;3.30;;
57441;SDS011;43284;47.042;15.498;2022-08-01T07:01:07;6.65;;;3.55;;
57441;SDS011;43284;47.042;15.498;2022-08-01T07:03:35;6.60;;;3.75;;
57441;SDS011;43284;47.042;15.498;2022-08-01T07:06:03;6.63;;;3.63;;
57441;SDS011;43284;47.042;15.498;2022-08-01T07:08:30;6.53;;;3.63;;
57441;SDS011;43284;47.042;15.498;2022-08-01T07:10:58;4.75;;;3.75;;
57441;SDS011;43284;47.042;15.498;2022-08-01T07:13:26;8.75;;;4.18;;
57441;SDS011;43284;47.042;15.498;2022-08-01T07:15:53;6.35;;;3.70;;
57441;SDS011;43284;47.042;15.498;2022-08-01T07:18:20;4.10;;;3.40;;
57441;SDS011;43284;47.042;15.498;2022-08-01T07:20:48;8.88;;;3.88;;
57441;SDS011;43284;47.042;15.498;2022-08-01T07:23:16;8.07;;;3.92;;
57441;SDS011;43284;47.042;15.498;2022-08-01T07:25:44;6.00;;;3.97;;
57441;SDS011;43284;47.042;15.498;2022-08-01T07:28:14;5.00;;;4.05;;
57441;SDS011;43284;47.042;15.498;2022-08-01T07:30:42;7.15;;;4.25;;
57441;SDS011;43284;47.042;15.498;2022-08-01T07:33:11;6.35;;;3.55;;
57441;SDS011;43284;47.042;15.498;2022-08-01T07:35:39;9.55;;;4.55;;
57441;SDS011;43284;47.042;15.498;2022-08-01T07:38:11;8.32;;;4.45;;
57441;SDS011;43284;47.042;15.498;2022-08-01T07:40:40;9.48;;;4.55;;
57441;SDS011;43284;47.042;15.498;2022-08-01T07:43:10;5.43;;;4.38;;
57441;SDS011;43284;47.042;15.498;2022-08-01T07:45:38;8.65;;;4.93;;
57441;SDS011;43284;47.042;15.498;2022-08-01T07:48:12;9.50;;;4.30;;
57441;SDS011;43284;47.042;15.498;2022-08-01T07:50:42;5.38;;;3.72;;
57441;SDS011;43284;47.042;15.498;2022-08-01T07:53:09;6.53;;;4.03;;
57441;SDS011;43284;47.042;15.498;2022-08-01T07:55:37;11.40;;;4.25;;
57441;SDS011;43284;47.042;15.498;2022-08-01T07:58:04;5.78;;;3.70;;
57441;SDS011;43284;47.042;15.498;2022-08-01T08:00:32;8.18;;;4.50;;
57441;SDS011;43284;47.042;15.498;2022-08-01T08:02:59;5.18;;;3.95;;
57441;SDS011;43284;47.042;15.498;2022-08-01T08:05:27;8.63;;;4.05;;
57441;SDS011;43284;47.042;15.498;2022-08-01T08:07:55;7.00;;;4.22;;
57441;SDS011;43284;47.042;15.498;2022-08-01T08:10:22;6.72;;;5.15;;
57441;SDS011;43284;47.042;15.498;2022-08-01T08:12:50;5.45;;;4.30;;
57441;SDS011;43284;47.042;15.498;2022-08-01T08:15:18;8.45;;;4.22;;
57441;SDS011;43284;47.042;15.498;2022-08-01T08:17:46;4.82;;;3.50;;
57441;SDS011;43284;47.042;15.498;2022-08-01T08:20:15;6.18;;;4.35;;
57441;SDS011;43284;47.042;15.498;2022-08-01T08:22:43;9.13;;;3.95;;
57441;SDS011;43284;47.042;15.498;2022-08-01T08:25:10;6.82;;;4.05;;
57441;SDS011;43284;47.042;15.498;2022-08-01T08:27:38;8.80;;;4.25;;
57441;SDS011;43284;47.042;15.498;2022-08-01T08:30:06;6.05;;;4.15;;
57441;SDS011;43284;47.042;15.498;2022-08-01T08:32:35;8.50;;;3.92;;
57441;SDS011;43284;47.042;15.498;2022-08-01T08:35:05;5.57;;;3.83;;
57441;SDS011;43284;47.042;15.498;2022-08-01T08:37:37;8.82;;;4.60;;
57441;SDS011;43284;47.042;15.498;2022-08-01T08:40:05;5.25;;;3.47;;
57441;SDS011;43284;47.042;15.498;2022-08-01T08:42:34;6.30;;;3.45;;
57441;SDS011;43284;47.042;15.498;2022-08-01T08:45:09;5.93;;;3.47;;
57441;SDS011;43284;47.042;15.498;2022-08-01T08:47:37;6.00;;;3.55;;
57441;SDS011;43284;47.042;15.498;2022-08-01T08:50:08;8.25;;;3.72;;
57441;SDS011;43284;47.042;15.498;2022-08-01T08:52:36;9.48;;;3.95;;
57441;SDS011;43284;47.042;15.498;2022-08-01T08:55:05;8.10;;;3.35;;
57441;SDS011;43284;47.042;15.498;2022-08-01T08:57:34;6.85;;;2.70;;
57441;SDS011;43284;47.042;15.498;2022-08-01T09:00:02;5.18;;;2.70;;
57441;SDS011;43284;47.042;15.498;2022-08-01T09:02:29;5.20;;;3.10;;
57441;SDS011;43284;47.042;15.498;2022-08-01T09:04:56;4.50;;;3.13;;
57441;SDS011;43284;47.042;15.498;2022-08-01T09:07:24;6.25;;;3.05;;
57441;SDS011;43284;47.042;15.498;2022-08-01T09:09:51;6.72;;;4.13;;
57441;SDS011;43284;47.042;15.498;2022-08-01T09:12:18;5.40;;;2.88;;
57441;SDS011;43284;47.042;15.498;2022-08-01T09:14:47;6.03;;;2.90;;
57441;SDS011;43284;47.042;15.498;2022-08-01T09:17:16;6.75;;;2.90;;
57441;SDS011;43284;47.042;15.498;2022-08-01T09:19:48;4.90;;;2.78;;
57441;SDS011;43284;47.042;15.498;2022-08-01T09:22:21;3.45;;;2.95;;
57441;SDS011;43284;47.042;15.498;2022-08-01T09:25:04;9.35;;;2.78;;
57441;SDS011;43284;47.042;15.498;2022-08-01T09:27:32;3.65;;;2.53;;
57441;SDS011;43284;47.042;15.498;2022-08-01T09:30:11;5.47;;;2.50;;
57441;SDS011;43284;47.042;15.498;2022-08-01T09:35:39;4.18;;;2.47;;
57441;SDS011;43284;47.042;15.498;2022-08-01T09:38:14;3.38;;;2.58;;
57441;SDS011;43284;47.042;15.498;2022-08-01T09:40:52;5.78;;;2.65;;
57441;SDS011;43284;47.042;15.498;2022-08-01T09:43:23;5.07;;;2.63;;
57441;SDS011;43284;47.042;15.498;2022-08-01T09:45:52;3.40;;;2.47;;
57441;SDS011;43284;47.042;15.498;2022-08-01T09:48:20;3.45;;;2.50;;
57441;SDS011;43284;47.042;15.498;2022-08-01T09:50:52;3.63;;;2.40;;
57441;SDS011;43284;47.042;15.498;2022-08-01T09:53:20;2.55;;;2.10;;
57441;SDS011;43284;47.042;15.498;2022-08-01T09:55:47;3.83;;;2.17;;
57441;SDS011;43284;47.042;15.498;2022-08-01T09:58:19;5.97;;;2.53;;
57441;SDS011;43284;47.042;15.498;2022-08-01T10:00:57;7.07;;;2.20;;
57441;SDS011;43284;47.042;15.498;2022-08-01T10:03:29;2.70;;;2.20;;
57441;SDS011;43284;47.042;15.498;2022-08-01T10:05:56;3.95;;;2.10;;
57441;SDS011;43284;47.042;15.498;2022-08-01T10:08:26;4.35;;;2.00;;
57441;SDS011;43284;47.042;15.498;2022-08-01T10:11:12;3.33;;;2.50;;
57441;SDS011;43284;47.042;15.498;2022-08-01T10:13:40;2.33;;;1.90;;
57441;SDS011;43284;47.042;15.498;2022-08-01T10:16:09;2.75;;;2.10;;
57441;SDS011;43284;47.042;15.498;2022-08-01T10:18:39;7.07;;;1.85;;
57441;SDS011;43284;47.042;15.498;2022-08-01T10:21:08;3.03;;;1.83;;
57441;SDS011;43284;47.042;15.498;2022-08-01T10:23:37;2.33;;;1.73;;
57441;SDS011;43284;47.042;15.498;2022-08-01T10:26:05;2.20;;;2.00;;
57441;SDS011;43284;47.042;15.498;2022-08-01T10:28:38;2.63;;;1.90;;
57441;SDS011;43284;47.042;15.498;2022-08-01T10:31:10;4.20;;;1.88;;
57441;SDS011;43284;47.042;15.498;2022-08-01T10:33:38;2.97;;;1.73;;
57441;SDS011;43284;47.042;15.498;2022-08-01T10:36:07;2.88;;;2.05;;
57441;SDS011;43284;47.042;15.498;2022-08-01T10:38:36;2.20;;;1.83;;
57441;SDS011;43284;47.042;15.498;2022-08-01T10:41:04;4.78;;;2.58;;
57441;SDS011;43284;47.042;15.498;2022-08-01T10:43:31;2.50;;;1.77;;
57441;SDS011;43284;47.042;15.498;2022-08-01T10:45:58;4.45;;;1.88;;
57441;SDS011;43284;47.042;15.498;2022-08-01T10:48:29;3.35;;;2.45;;
57441;SDS011;43284;47.042;15.498;2022-08-01T10:51:18;3.80;;;1.77;;
57441;SDS011;43284;47.042;15.498;2022-08-01T10:53:51;6.47;;;2.03;;
57441;SDS011;43284;47.042;15.498;2022-08-01T10:56:19;3.53;;;2.63;;
57441;SDS011;43284;47.042;15.498;2022-08-01T10:58:48;2.85;;;2.40;;
57441;SDS011;43284;47.042;15.498;2022-08-01T11:01:25;2.72;;;2.10;;
57441;SDS011;43284;47.042;15.498;2022-08-01T11:03:57;4.40;;;1.92;;
57441;SDS011;43284;47.042;15.498;2022-08-01T11:09:05;5.03;;;2.35;;
57441;SDS011;43284;47.042;15.498;2022-08-01T11:12:03;3.20;;;1.92;;
57441;SDS011;43284;47.042;15.498;2022-08-01T11:17:30;4.07;;;1.80;;
57441;SDS011;43284;47.042;15.498;2022-08-01T11:20:09;2.88;;;1.88;;
57441;SDS011;43284;47.042;15.498;2022-08-01T11:33:14;3.15;;;2.10;;
57441;SDS011;43284;47.042;15.498;2022-08-01T11:38:37;2.75;;;1.80;;
57441;SDS011;43284;47.042;15.498;2022-08-01T11:41:12;2.30;;;1.95;;
57441;SDS011;43284;47.042;15.498;2022-08-01T11:46:47;3.10;;;1.83;;
57441;SDS011;43284;47.042;15.498;2022-08-01T11:54:26;3.10;;;1.30;;
57441;SDS011;43284;47.042;15.498;2022-08-01T11:56:56;1.58;;;1.35;;
57441;SDS011;43284;47.042;15.498;2022-08-01T11:59:24;1.98;;;1.30;;
57441;SDS011;43284;47.042;15.498;2022-08-01T12:01:52;3.15;;;1.40;;
57441;SDS011;43284;47.042;15.498;2022-08-01T12:04:19;3.85;;;1.45;;
57441;SDS011;43284;47.042;15.498;2022-08-01T12:06:46;2.70;;;1.48;;
57441;SDS011;43284;47.042;15.498;2022-08-01T12:09:21;2.08;;;1.10;;
57441;SDS011;43284;47.042;15.498;2022-08-01T12:11:50;2.17;;;1.15;;
57441;SDS011;43284;47.042;15.498;2022-08-01T12:14:19;5.30;;;1.30;;
57441;SDS011;43284;47.042;15.498;2022-08-01T12:16:54;2.13;;;1.02;;
57441;SDS011;43284;47.042;15.498;2022-08-01T12:19:23;4.60;;;1.20;;
57441;SDS011;43284;47.042;15.498;2022-08-01T12:24:48;1.33;;;0.95;;
57441;SDS011;43284;47.042;15.498;2022-08-01T12:27:26;3.30;;;1.05;;
57441;SDS011;43284;47.042;15.498;2022-08-01T12:29:57;2.83;;;1.30;;
57441;SDS011;43284;47.042;15.498;2022-08-01T12:32:29;1.48;;;0.88;;
57441;SDS011;43284;47.042;15.498;2022-08-01T12:35:02;0.70;;;0.70;;
57441;SDS011;43284;47.042;15.498;2022-08-01T12:37:39;1.73;;;1.00;;
57441;SDS011;43284;47.042;15.498;2022-08-01T12:42:43;1.25;;;0.98;;
57441;SDS011;43284;47.042;15.498;2022-08-01T12:45:12;1.00;;;0.90;;
57441;SDS011;43284;47.042;15.498;2022-08-01T12:47:44;1.77;;;1.10;;
57441;SDS011;43284;47.042;15.498;2022-08-01T12:50:13;1.38;;;0.98;;
57441;SDS011;43284;47.042;15.498;2022-08-01T12:52:45;1.95;;;1.08;;
57441;SDS011;43284;47.042;15.498;2022-08-01T12:55:17;4.32;;;0.80;;
57441;SDS011;43284;47.042;15.498;2022-08-01T12:58:02;1.08;;;0.90;;
57441;SDS011;43284;47.042;15.498;2022-08-01T13:00:35;1.55;;;1.00;;
57441;SDS011;43284;47.042;15.498;2022-08-01T13:03:15;1.20;;;0.83;;
57441;SDS011;43284;47.042;15.498;2022-08-01T13:05:48;1.45;;;1.00;;
57441;SDS011;43284;47.042;15.498;2022-08-01T13:08:23;1.25;;;0.82;;
57441;SDS011;43284;47.042;15.498;2022-08-01T13:11:06;1.05;;;0.90;;
57441;SDS011;43284;47.042;15.498;2022-08-01T13:13:49;1.45;;;1.08;;
57441;SDS011;43284;47.042;15.498;2022-08-01T13:16:26;2.33;;;0.93;;
57441;SDS011;43284;47.042;15.498;2022-08-01T13:18:54;0.90;;;0.70;;
57441;SDS011;43284;47.042;15.498;2022-08-01T13:21:28;1.60;;;0.90;;
57441;SDS011;43284;47.042;15.498;2022-08-01T13:24:03;1.60;;;1.15;;
57441;SDS011;43284;47.042;15.498;2022-08-01T13:26:39;2.97;;;0.80;;
57441;SDS011;43284;47.042;15.498;2022-08-01T13:29:15;0.90;;;0.70;;
57441;SDS011;43284;47.042;15.498;2022-08-01T13:31:48;1.60;;;0.82;;
57441;SDS011;43284;47.042;15.498;2022-08-01T13:34:16;2.35;;;0.98;;
57441;SDS011;43284;47.042;15.498;2022-08-01T13:36:43;1.27;;;0.77;;
57441;SDS011;43284;47.042;15.498;2022-08-01T13:39:10;3.00;;;0.80;;
57441;SDS011;43284;47.042;15.498;2022-08-01T13:41:56;1.08;;;0.98;;
57441;SDS011;43284;47.042;15.498;2022-08-01T13:44:23;1.50;;;0.98;;
57441;SDS011;43284;47.042;15.498;2022-08-01T13:46:50;3.83;;;0.93;;
57441;SDS011;43284;47.042;15.498;2022-08-01T13:49:20;1.48;;;1.08;;
57441;SDS011;43284;47.042;15.498;2022-08-01T13:51:47;1.27;;;0.90;;
57441;SDS011;43284;47.042;15.498;2022-08-01T13:54:16;0.95;;;0.93;;
57441;SDS011;43284;47.042;15.498;2022-08-01T13:56:43;1.17;;;1.08;;
57441;SDS011;43284;47.042;15.498;2022-08-01T13:59:10;5.82;;;1.13;;
57441;SDS011;43284;47.042;15.498;2022-08-01T14:01:38;1.63;;;0.80;;
57441;SDS011;43284;47.042;15.498;2022-08-01T14:04:05;2.80;;;0.95;;
57441;SDS011;43284;47.042;15.498;2022-08-01T14:06:32;1.65;;;0.90;;
57441;SDS011;43284;47.042;15.498;2022-08-01T14:09:01;1.95;;;0.90;;
57441;SDS011;43284;47.042;15.498;2022-08-01T14:11:33;3.17;;;0.95;;
57441;SDS011;43284;47.042;15.498;2022-08-01T14:14:00;2.28;;;1.63;;
57441;SDS011;43284;47.042;15.498;2022-08-01T14:16:31;2.03;;;1.02;;
57441;SDS011;43284;47.042;15.498;2022-08-01T14:18:59;1.48;;;0.88;;
57441;SDS011;43284;47.042;15.498;2022-08-01T14:21:26;1.65;;;1.10;;
57441;SDS011;43284;47.042;15.498;2022-08-01T14:23:54;1.80;;;0.88;;
57441;SDS011;43284;47.042;15.498;2022-08-01T14:26:21;2.20;;;1.30;;
57441;SDS011;43284;47.042;15.498;2022-08-01T14:28:48;1.35;;;1.02;;
57441;SDS011;43284;47.042;15.498;2022-08-01T14:31:16;1.55;;;0.93;;
57441;SDS011;43284;47.042;15.498;2022-08-01T14:33:44;1.30;;;0.98;;
57441;SDS011;43284;47.042;15.498;2022-08-01T14:36:12;1.38;;;0.95;;
57441;SDS011;43284;47.042;15.498;2022-08-01T14:38:40;1.50;;;0.90;;
57441;SDS011;43284;47.042;15.498;2022-08-01T14:41:09;1.15;;;0.85;;
57441;SDS011;43284;47.042;15.498;2022-08-01T14:43:37;2.90;;;1.08;;
57441;SDS011;43284;47.042;15.498;2022-08-01T14:46:04;1.48;;;0.95;;
57441;SDS011;43284;47.042;15.498;2022-08-01T14:48:33;1.77;;;0.90;;
57441;SDS011;43284;47.042;15.498;2022-08-01T14:51:01;2.10;;;1.20;;
57441;SDS011;43284;47.042;15.498;2022-08-01T14:53:29;2.83;;;1.00;;
57441;SDS011;43284;47.042;15.498;2022-08-01T14:55:56;1.98;;;1.02;;
57441;SDS011;43284;47.042;15.498;2022-08-01T14:58:23;2.05;;;0.98;;
57441;SDS011;43284;47.042;15.498;2022-08-01T15:00:52;2.25;;;1.27;;
57441;SDS011;43284;47.042;15.498;2022-08-01T15:03:20;2.40;;;1.20;;
57441;SDS011;43284;47.042;15.498;2022-08-01T15:05:50;1.88;;;1.23;;
57441;SDS011;43284;47.042;15.498;2022-08-01T15:08:18;2.65;;;1.52;;
57441;SDS011;43284;47.042;15.498;2022-08-01T15:10:45;2.40;;;1.15;;
57441;SDS011;43284;47.042;15.498;2022-08-01T15:13:13;2.97;;;1.40;;
57441;SDS011;43284;47.042;15.498;2022-08-01T15:15:40;3.42;;;1.40;;
57441;SDS011;43284;47.042;15.498;2022-08-01T15:18:10;3.17;;;1.70;;
57441;SDS011;43284;47.042;15.498;2022-08-01T15:20:39;3.65;;;1.25;;
57441;SDS011;43284;47.042;15.498;2022-08-01T15:23:08;3.03;;;1.50;;
57441;SDS011;43284;47.042;15.498;2022-08-01T15:25:35;3.67;;;1.67;;
57441;SDS011;43284;47.042;15.498;2022-08-01T15:28:03;1.90;;;1.58;;
57441;SDS011;43284;47.042;15.498;2022-08-01T15:30:32;3.20;;;1.67;;
57441;SDS011;43284;47.042;15.498;2022-08-01T15:33:00;2.10;;;1.60;;
57441;SDS011;43284;47.042;15.498;2022-08-01T15:35:29;2.80;;;1.70;;
57441;SDS011;43284;47.042;15.498;2022-08-01T15:38:02;1.70;;;1.27;;
57441;SDS011;43284;47.042;15.498;2022-08-01T15:40:31;4.55;;;1.55;;
57441;SDS011;43284;47.042;15.498;2022-08-01T15:43:00;2.15;;;1.60;;